createdAt,value
2018-11-21T00:00:18.830Z,75.90
2018-11-21T00:02:48.998Z,76.38
2018-11-21T00:05:18.461Z,76.85
2018-11-21T00:07:47.912Z,75.69
2018-11-21T00:10:17.371Z,75.36
2018-11-21T00:12:49.405Z,75.34
2018-11-21T00:15:18.831Z,79.02
2018-11-21T00:17:48.428Z,77.26
2018-11-21T00:20:17.872Z,76.68
2018-11-21T00:22:47.273Z,76.44
2018-11-21T00:25:16.693Z,75.52
2018-11-21T00:27:46.163Z,74.97
2018-11-21T00:30:16.727Z,75.64
2018-11-21T00:32:46.167Z,74.75
2018-11-21T00:35:15.554Z,74.25
2018-11-21T00:37:44.960Z,74.61
2018-11-21T00:40:15.390Z,74.47
2018-11-21T00:42:46.836Z,74.19
2018-11-21T00:45:14.199Z,74.36
2018-11-21T00:47:43.584Z,74.54
2018-11-21T00:50:13.036Z,74.03
2018-11-21T00:52:42.493Z,74.16
2018-11-21T00:55:11.899Z,73.87
2018-11-21T00:57:41.353Z,73.69
2018-11-21T01:00:12.183Z,73.45
2018-11-21T01:02:41.715Z,73.83
2018-11-21T01:05:11.109Z,73.54
2018-11-21T01:07:40.518Z,73.55
2018-11-21T01:10:10.027Z,73.44
2018-11-21T01:12:39.450Z,73.56
2018-11-21T01:15:08.985Z,73.49
2018-11-21T01:17:38.386Z,73.56
2018-11-21T01:20:08.691Z,73.64
2018-11-21T01:22:38.351Z,75.02
2018-11-21T01:25:08.402Z,73.82
2018-11-21T01:27:37.817Z,74.13
2018-11-21T01:30:07.999Z,74.16
2018-11-21T01:32:37.751Z,74.54
2018-11-21T01:35:07.818Z,73.83
2018-11-21T01:37:37.227Z,73.76
2018-11-21T01:40:07.806Z,73.87
2018-11-21T01:42:37.193Z,73.89
2018-11-21T01:45:06.810Z,73.68
2018-11-21T01:47:36.301Z,73.62
2018-11-21T01:50:06.835Z,73.41
2018-11-21T01:52:36.234Z,73.93
2018-11-21T01:55:06.447Z,73.28
2018-11-21T01:57:35.936Z,73.69
2018-11-21T02:00:06.363Z,73.58
2018-11-21T02:02:35.758Z,73.50
2018-11-21T02:05:05.215Z,73.46
2018-11-21T02:07:34.828Z,74.02
2018-11-21T02:10:04.344Z,73.94
2018-11-21T02:12:33.786Z,74.13
2018-11-21T02:15:03.202Z,74.00
2018-11-21T02:17:32.640Z,74.05
2018-11-21T02:20:02.031Z,73.95
2018-11-21T02:22:31.467Z,74.10
2018-11-21T02:25:00.896Z,73.89
2018-11-21T02:27:30.330Z,73.98
2018-11-21T02:29:59.718Z,74.02
2018-11-21T02:32:29.166Z,73.56
2018-11-21T02:34:58.548Z,73.89
2018-11-21T02:37:27.941Z,74.94
2018-11-21T02:39:57.344Z,75.27
2018-11-21T02:42:26.731Z,74.81
2018-11-21T02:44:56.232Z,74.53
2018-11-21T02:47:25.652Z,74.09
2018-11-21T02:49:55.088Z,73.93
2018-11-21T02:52:24.504Z,73.88
2018-11-21T02:54:53.992Z,73.85
2018-11-21T02:57:25.072Z,74.03
2018-11-21T02:59:59.420Z,73.82
2018-11-21T03:02:28.949Z,73.80
2018-11-21T03:04:58.344Z,73.48
2018-11-21T03:07:27.753Z,73.48
2018-11-21T03:09:57.152Z,73.57
2018-11-21T03:12:26.552Z,73.54
2018-11-21T03:14:56.032Z,73.43
2018-11-21T03:17:25.436Z,73.85
2018-11-21T03:19:54.898Z,73.65
2018-11-21T03:22:24.333Z,74.45
2018-11-21T03:24:53.736Z,74.15
2018-11-21T03:27:23.178Z,74.01
2018-11-21T03:29:52.572Z,73.77
2018-11-21T03:32:22.017Z,73.22
2018-11-21T03:34:51.573Z,73.28
2018-11-21T03:37:21.016Z,73.41
2018-11-21T03:39:50.410Z,73.43
2018-11-21T03:42:19.814Z,73.66
2018-11-21T03:44:49.253Z,73.59
2018-11-21T03:47:18.640Z,73.62
2018-11-21T03:49:48.191Z,73.23
2018-11-21T03:52:17.583Z,75.14
2018-11-21T03:54:46.972Z,74.26
2018-11-21T03:57:16.445Z,73.80
2018-11-21T03:59:45.843Z,73.89
2018-11-21T04:02:15.248Z,73.92
2018-11-21T04:04:44.740Z,73.78
2018-11-21T04:07:14.151Z,73.90
2018-11-21T04:09:43.694Z,73.55
2018-11-21T04:12:13.145Z,73.29
2018-11-21T04:14:42.593Z,73.91
2018-11-21T04:17:12.217Z,73.63
2018-11-21T04:19:41.853Z,74.18
2018-11-21T04:22:11.328Z,74.17
2018-11-21T04:24:40.772Z,74.11
2018-11-21T04:27:10.344Z,74.28
2018-11-21T04:29:39.859Z,73.77
2018-11-21T04:32:09.339Z,73.88
2018-11-21T04:34:38.748Z,74.27
2018-11-21T04:37:08.377Z,74.02
2018-11-21T04:39:37.773Z,73.93
2018-11-21T04:42:07.160Z,75.54
2018-11-21T04:44:36.655Z,74.74
2018-11-21T04:47:06.088Z,74.29
2018-11-21T04:49:35.488Z,75.07
2018-11-21T04:52:05.202Z,74.38
2018-11-21T04:54:34.638Z,75.19
2018-11-21T04:57:04.135Z,76.68
2018-11-21T04:59:33.629Z,75.75
2018-11-21T05:02:03.178Z,74.71
2018-11-21T05:04:32.603Z,74.43
2018-11-21T05:07:02.140Z,74.05
2018-11-21T05:09:31.613Z,74.09
2018-11-21T05:12:01.116Z,73.62
2018-11-21T05:14:30.679Z,73.77
2018-11-21T05:17:00.225Z,73.69
2018-11-21T05:19:29.802Z,73.23
2018-11-21T05:21:59.283Z,73.21
2018-11-21T05:24:28.778Z,73.52
2018-11-21T05:26:58.190Z,73.59
2018-11-21T05:29:27.699Z,73.46
2018-11-21T05:31:57.228Z,73.34
2018-11-21T05:34:26.742Z,75.13
2018-11-21T05:36:56.087Z,76.15
2018-11-21T05:39:25.490Z,75.71
2018-11-21T05:41:54.903Z,74.87
2018-11-21T05:44:26.983Z,74.54
2018-11-21T05:46:53.858Z,74.34
2018-11-21T05:49:23.321Z,73.61
2018-11-21T05:51:53.177Z,73.65
2018-11-21T05:54:22.708Z,75.14
2018-11-21T05:56:52.107Z,74.58
2018-11-21T05:59:21.583Z,74.30
2018-11-21T06:01:51.241Z,73.90
2018-11-21T06:04:20.628Z,73.77
2018-11-21T06:06:50.095Z,73.34
2018-11-21T06:09:19.493Z,74.09
2018-11-21T06:11:48.929Z,73.27
2018-11-21T06:14:18.345Z,73.18
2018-11-21T06:16:47.815Z,72.92
2018-11-21T06:19:17.215Z,73.19
2018-11-21T06:21:46.706Z,73.12
2018-11-21T06:24:16.095Z,73.54
2018-11-21T06:26:54.112Z,73.81
2018-11-21T06:29:23.576Z,73.45
2018-11-21T06:31:52.965Z,75.97
2018-11-21T06:34:22.343Z,75.54
2018-11-21T06:36:51.811Z,74.78
2018-11-21T06:39:21.613Z,74.99
2018-11-21T06:41:51.016Z,74.21
2018-11-21T06:44:20.532Z,74.31
2018-11-21T06:46:49.950Z,73.66
2018-11-21T06:49:19.466Z,73.42
2018-11-21T06:51:48.854Z,75.04
2018-11-21T06:54:18.253Z,74.89
2018-11-21T06:56:47.708Z,74.57
2018-11-21T06:59:17.163Z,74.71
2018-11-21T07:01:46.532Z,74.54
2018-11-21T07:04:15.933Z,74.05
2018-11-21T07:06:45.702Z,73.55
2018-11-21T07:09:15.301Z,73.99
2018-11-21T07:11:44.667Z,73.79
2018-11-21T07:14:14.134Z,73.61
2018-11-21T07:16:43.805Z,73.50
2018-11-21T07:19:13.262Z,73.64
2018-11-21T07:21:42.647Z,73.14
2018-11-21T07:24:12.118Z,73.33
2018-11-21T07:26:41.573Z,73.63
2018-11-21T07:29:11.127Z,73.56
2018-11-21T07:31:40.485Z,73.81
2018-11-21T07:34:09.880Z,74.11
2018-11-21T07:36:39.330Z,74.41
2018-11-21T07:39:10.026Z,74.18
2018-11-21T07:41:39.459Z,74.18
2018-11-21T07:44:08.925Z,74.06
2018-11-21T07:46:38.410Z,74.79
2018-11-21T07:49:07.797Z,74.35
2018-11-21T07:51:37.257Z,74.69
2018-11-21T07:54:06.906Z,74.25
2018-11-21T07:57:18.040Z,74.03
2018-11-21T08:00:44.901Z,73.82
2018-11-21T08:03:14.967Z,74.21
2018-11-21T08:05:47.051Z,74.65
2018-11-21T08:08:34.144Z,74.67
2018-11-21T08:11:25.254Z,75.61
2018-11-21T08:14:13.653Z,74.45
2018-11-21T08:17:20.207Z,74.61
2018-11-21T08:20:07.296Z,74.10
2018-11-21T08:23:01.851Z,73.75
2018-11-21T08:25:53.251Z,75.41
2018-11-21T08:28:21.698Z,75.35
2018-11-21T08:30:51.612Z,74.99
2018-11-21T08:33:21.065Z,74.40
2018-11-21T08:35:50.483Z,75.02
2018-11-21T08:38:19.917Z,74.98
2018-11-21T08:40:49.306Z,74.33
2018-11-21T08:43:18.728Z,74.58
2018-11-21T08:45:48.160Z,74.52
2018-11-21T08:48:18.608Z,74.30
2018-11-21T08:50:48.007Z,74.36
2018-11-21T08:53:17.511Z,74.13
2018-11-21T08:55:46.899Z,73.56
2018-11-21T08:58:16.319Z,74.43
2018-11-21T09:00:46.586Z,74.18
2018-11-21T09:03:16.064Z,74.10
2018-11-21T09:05:45.538Z,73.67
2018-11-21T09:08:14.946Z,73.44
2018-11-21T09:10:44.356Z,74.12
2018-11-21T09:13:13.789Z,73.74
2018-11-21T09:15:43.226Z,74.07
2018-11-21T09:18:12.622Z,73.99
2018-11-21T09:20:42.114Z,73.74
2018-11-21T09:23:11.596Z,74.10
2018-11-21T09:25:40.981Z,75.25
2018-11-21T09:28:10.449Z,75.68
2018-11-21T09:30:39.835Z,75.14
2018-11-21T09:33:09.234Z,75.30
2018-11-21T09:35:38.691Z,75.08
2018-11-21T09:38:08.145Z,74.78
2018-11-21T09:40:37.551Z,74.99
2018-11-21T09:43:06.981Z,74.95
2018-11-21T09:45:36.495Z,75.40
2018-11-21T09:48:06.050Z,75.70
2018-11-21T09:50:35.643Z,76.20
2018-11-21T09:53:05.155Z,75.71
2018-11-21T09:55:34.576Z,76.30
2018-11-21T09:58:04.051Z,76.15
2018-11-21T10:01:09.924Z,76.29
2018-11-21T10:03:40.114Z,75.62
2018-11-21T10:06:20.757Z,76.50
2018-11-21T10:09:11.814Z,77.65
2018-11-21T10:11:41.217Z,77.32
2018-11-21T10:14:10.656Z,78.22
2018-11-21T10:16:40.056Z,77.26
2018-11-21T10:19:09.603Z,77.02
2018-11-21T10:21:38.986Z,77.90
2018-11-21T10:24:08.445Z,77.86
2018-11-21T10:26:37.868Z,77.15
2018-11-21T10:29:07.257Z,76.44
2018-11-21T10:31:36.670Z,75.91
2018-11-21T10:34:06.142Z,75.91
2018-11-21T10:36:35.597Z,76.29
2018-11-21T10:39:07.084Z,76.24
2018-11-21T10:41:36.526Z,76.94
2018-11-21T10:44:06.187Z,76.24
2018-11-21T10:46:35.588Z,77.10
2018-11-21T10:49:05.042Z,76.53
2018-11-21T10:51:34.621Z,76.00
2018-11-21T10:54:04.127Z,76.47
2018-11-21T10:56:33.534Z,76.04
2018-11-21T10:59:03.007Z,76.92
2018-11-21T11:01:50.283Z,77.96
2018-11-21T11:04:29.813Z,76.92
2018-11-21T11:07:17.044Z,77.33
2018-11-21T11:10:03.987Z,77.65
2018-11-21T11:12:55.408Z,77.08
2018-11-21T11:15:42.830Z,76.72
2018-11-21T11:18:40.149Z,75.94
2018-11-21T11:21:26.993Z,76.57
2018-11-21T11:24:27.450Z,77.21
2018-11-21T11:27:15.846Z,77.02
2018-11-21T11:30:01.938Z,76.63
2018-11-21T11:32:47.422Z,76.64
2018-11-21T11:35:47.819Z,77.05
2018-11-21T11:38:32.772Z,76.76
2018-11-21T11:41:19.967Z,77.52
2018-11-21T11:44:07.164Z,76.84
2018-11-21T11:47:07.706Z,76.46
2018-11-21T11:49:59.108Z,76.84
2018-11-21T11:52:45.943Z,77.92
2018-11-21T11:55:43.377Z,78.12
2018-11-21T11:58:30.429Z,78.22
2018-11-21T12:01:21.815Z,77.74
2018-11-21T12:04:13.193Z,77.84
2018-11-21T12:07:20.116Z,78.26
2018-11-21T12:10:07.493Z,77.69
2018-11-21T12:13:08.501Z,77.08
2018-11-21T12:15:50.386Z,76.62
2018-11-21T12:18:31.950Z,76.96
2018-11-21T12:21:19.397Z,76.40
2018-11-21T12:24:26.403Z,76.57
2018-11-21T12:27:17.778Z,76.21
2018-11-21T12:30:12.473Z,76.51
2018-11-21T12:33:16.407Z,76.25
2018-11-21T12:36:03.647Z,75.92
2018-11-21T12:38:52.194Z,76.43
2018-11-21T12:41:52.553Z,76.37
2018-11-21T12:44:43.107Z,76.37
2018-11-21T12:47:40.567Z,75.93
2018-11-21T12:50:24.414Z,75.74
2018-11-21T12:53:31.472Z,76.16
2018-11-21T12:56:20.072Z,75.93
2018-11-21T12:59:14.630Z,76.10
2018-11-21T13:02:15.520Z,75.73
2018-11-21T13:05:06.909Z,76.21
2018-11-21T13:08:07.450Z,75.95
2018-11-21T13:11:01.798Z,76.49
2018-11-21T13:13:51.835Z,76.10
2018-11-21T13:16:37.411Z,76.20
2018-11-21T13:19:25.034Z,76.09
2018-11-21T13:22:12.145Z,75.91
2018-11-21T13:24:59.620Z,76.99
2018-11-21T13:27:51.161Z,76.69
2018-11-21T13:30:51.383Z,76.77
2018-11-21T13:33:34.500Z,76.65
2018-11-21T13:36:26.085Z,76.90
2018-11-21T13:39:23.702Z,77.08
2018-11-21T13:42:11.091Z,77.08
2018-11-21T13:45:17.542Z,77.18
2018-11-21T13:48:15.102Z,76.85
2018-11-21T13:51:03.712Z,76.74
2018-11-21T13:53:50.790Z,76.53
2018-11-21T13:56:20.390Z,76.80
2018-11-21T13:58:49.952Z,77.58
2018-11-21T14:01:19.563Z,77.22
2018-11-21T14:03:49.116Z,77.13
2018-11-21T14:06:18.732Z,77.27
2018-11-21T14:08:48.288Z,78.02
2018-11-21T14:11:17.912Z,78.18
2018-11-21T14:13:47.530Z,78.26
2018-11-21T14:16:17.084Z,78.41
2018-11-21T14:18:46.666Z,79.58
2018-11-21T14:21:16.224Z,78.19
2018-11-21T14:23:45.807Z,78.41
2018-11-21T14:26:15.357Z,77.87
2018-11-21T14:28:45.000Z,77.18
2018-11-21T14:31:14.549Z,77.10
2018-11-21T14:33:44.139Z,77.57
2018-11-21T14:36:13.812Z,77.34
2018-11-21T14:38:43.388Z,77.88
2018-11-21T14:41:12.985Z,77.29
2018-11-21T14:43:42.626Z,77.59
2018-11-21T14:46:12.225Z,77.74
2018-11-21T14:48:42.536Z,77.17
2018-11-21T14:51:12.179Z,78.16
2018-11-21T14:53:42.979Z,76.79
2018-11-21T14:56:11.340Z,76.56
2018-11-21T14:58:41.031Z,76.61
2018-11-21T15:01:10.582Z,76.75
2018-11-21T15:03:40.148Z,77.29
2018-11-21T15:06:09.730Z,76.91
2018-11-21T15:08:39.352Z,77.35
2018-11-21T15:11:08.922Z,76.94
2018-11-21T15:13:38.675Z,77.61
2018-11-21T15:16:08.239Z,77.46
2018-11-21T15:18:37.909Z,78.46
2018-11-21T15:21:07.464Z,77.88
2018-11-21T15:23:37.023Z,77.67
2018-11-21T15:26:06.741Z,78.00
2018-11-21T15:28:36.341Z,78.52
2018-11-21T15:31:06.369Z,77.93
2018-11-21T15:33:35.996Z,78.19
2018-11-21T15:36:05.935Z,79.00
2018-11-21T15:38:35.513Z,78.75
2018-11-21T15:41:05.070Z,78.74
2018-11-21T15:43:34.659Z,78.44
2018-11-21T15:46:04.223Z,78.27
2018-11-21T15:48:33.816Z,79.06
2018-11-21T15:51:03.505Z,78.54
2018-11-21T15:53:33.005Z,78.54
2018-11-21T15:56:02.624Z,78.21
2018-11-21T15:58:32.238Z,77.77
2018-11-21T16:01:01.800Z,78.53
2018-11-21T16:03:31.370Z,78.92
2018-11-21T16:06:01.039Z,78.88
2018-11-21T16:08:30.611Z,78.90
2018-11-21T16:11:00.281Z,79.38
2018-11-21T16:13:30.230Z,78.79
2018-11-21T16:15:59.789Z,79.50
2018-11-21T16:18:29.426Z,78.49
2018-11-21T16:20:59.008Z,78.40
2018-11-21T16:23:28.635Z,80.48
2018-11-21T16:25:58.206Z,79.66
2018-11-21T16:28:27.848Z,79.10
2018-11-21T16:30:57.437Z,79.54
2018-11-21T16:33:27.105Z,79.11
2018-11-21T16:35:56.661Z,80.20
2018-11-21T16:38:26.414Z,79.66
2018-11-21T16:40:55.959Z,79.54
2018-11-21T16:43:25.568Z,79.37
2018-11-21T16:45:57.052Z,79.88
2018-11-21T16:48:27.380Z,79.58
2018-11-21T16:50:56.864Z,79.52
2018-11-21T16:53:26.439Z,79.33
2018-11-21T16:55:56.012Z,78.79
2018-11-21T16:58:25.633Z,79.25
2018-11-21T17:00:55.326Z,79.38
2018-11-21T17:03:24.882Z,78.81
2018-11-21T17:05:54.525Z,78.28
2018-11-21T17:08:24.104Z,78.45
2018-11-21T17:10:53.777Z,78.63
2018-11-21T17:13:23.329Z,78.23
2018-11-21T17:15:52.912Z,78.16
2018-11-21T17:18:22.564Z,78.14
2018-11-21T17:20:52.178Z,79.40
2018-11-21T17:23:21.738Z,78.47
2018-11-21T17:25:51.305Z,79.59
2018-11-21T17:28:20.963Z,78.93
2018-11-21T17:30:50.585Z,79.19
2018-11-21T17:33:20.228Z,79.50
2018-11-21T17:35:49.909Z,79.13
2018-11-21T17:38:19.559Z,79.23
2018-11-21T17:40:49.113Z,79.30
2018-11-21T17:43:18.704Z,79.07
2018-11-21T17:45:48.325Z,80.19
2018-11-21T17:48:17.885Z,79.61
2018-11-21T17:50:47.523Z,79.27
2018-11-21T17:53:17.246Z,78.86
2018-11-21T17:55:46.964Z,78.77
2018-11-21T17:58:16.555Z,78.89
2018-11-21T18:00:46.208Z,78.55
2018-11-21T18:03:15.783Z,78.61
2018-11-21T18:05:45.351Z,79.00
2018-11-21T18:08:14.940Z,79.25
2018-11-21T18:10:44.525Z,78.71
2018-11-21T18:13:14.189Z,79.41
2018-11-21T18:15:43.792Z,79.53
2018-11-21T18:18:13.433Z,79.00
2018-11-21T18:20:43.056Z,79.11
2018-11-21T18:23:12.630Z,78.51
2018-11-21T18:25:44.216Z,78.35
2018-11-21T18:28:13.786Z,78.43
2018-11-21T18:30:43.363Z,78.12
2018-11-21T18:33:12.928Z,78.17
2018-11-21T18:35:42.613Z,78.11
2018-11-21T18:38:13.321Z,77.86
2018-11-21T18:40:42.068Z,78.20
2018-11-21T18:43:11.866Z,78.04
2018-11-21T18:45:43.093Z,78.04
2018-11-21T18:48:12.817Z,77.92
2018-11-21T18:50:42.378Z,78.72
2018-11-21T18:53:12.560Z,78.26
2018-11-21T18:55:47.666Z,77.94
2018-11-21T18:58:38.472Z,78.06
2018-11-21T19:01:08.630Z,78.01
